Time;durP1;ratioP1;P1;durP2;ratioP2;P2;SDS_P1;SDS_P2;PMS_P1;PMS_P2;Temp;Humidity;BMP_temperature;BMP_pressure;BME280_temperature;BME280_humidity;BME280_pressure;Samples;Min_cycle;Max_cycle;Signal;HPM_P1;HPM_P2
2022/02/01 00:00:27;;;;;;;;;;;;;;;-0.03;69.66;99876.04;1741046;82;20893;-76
2022/02/01 00:02:57;;;;;;;11.18;5.33;;;;;;;-0.05;69.64;99869.25;1738093;82;20119;-76
2022/02/01 00:05:35;;;;;;;8.65;4.67;;;;;;;-0.07;69.70;99870.60;1737830;82;20972;-76
2022/02/01 00:08:07;;;;;;;11.08;5.58;;;;;;;-0.09;69.78;99883.10;1735354;82;20948;-76
2022/02/01 00:10:38;;;;;;;7.70;4.37;;;;;;;-0.11;69.90;99884.45;1735322;82;21176;-78
2022/02/01 00:37:17;;;;;;;7.70;3.95;;;;;;;-0.23;70.40;99866.30;1734288;82;21165;-76
2022/02/01 00:39:43;;;;;;;5.17;2.72;;;;;;;-0.22;70.47;99876.19;1733366;82;20921;-77
2022/02/01 00:42:11;;;;;;;6.75;3.25;;;;;;;-0.20;70.52;99870.55;1734018;82;20977;-76
2022/02/01 00:44:39;;;;;;;6.00;2.65;;;;;;;-0.20;70.51;99873.13;1733913;82;20948;-76
2022/02/01 00:47:06;;;;;;;8.80;3.47;;;;;;;-0.18;70.43;99862.30;1734098;82;20960;-76
2022/02/01 00:49:34;;;;;;;6.42;3.08;;;;;;;-0.16;70.37;99867.42;1733764;82;21156;-75
2022/02/01 00:52:02;;;;;;;5.33;2.92;;;;;;;-0.13;70.38;99878.50;1741796;82;20865;-75
2022/02/01 00:54:32;;;;;;;6.90;3.75;;;;;;;-0.10;70.38;99880.98;1741768;81;20940;-77
2022/02/01 00:56:59;;;;;;;5.85;4.00;;;;;;;-0.07;70.43;99882.20;1741659;82;20928;-78
2022/02/01 00:59:26;;;;;;;5.85;2.98;;;;;;;-0.05;70.44;99884.26;1712378;82;20960;-77
2022/02/01 01:01:53;;;;;;;8.43;3.87;;;;;;;-0.03;70.42;99876.04;1742011;81;21207;-77
2022/02/01 01:04:19;;;;;;;4.87;2.90;;;;;;;-0.01;70.46;99881.16;1741719;82;20885;-79
2022/02/01 01:06:46;;;;;;;6.53;3.77;;;;;;;0.01;70.40;99881.97;1668586;86;21470;-78
2022/02/01 01:09:14;;;;;;;3.55;2.52;;;;;;;0.00;70.52;99891.89;1741517;82;21008;-75
2022/02/01 01:11:41;;;;;;;5.83;3.08;;;;;;;0.04;70.41;99893.91;1741531;81;20944;-75
2022/02/01 01:44:09;;;;;;;5.22;3.35;;;;;;;0.14;70.48;99910.37;1775306;80;20983;-73
2022/02/01 01:54:57;;;;;;;8.63;4.67;;;;;;;0.19;70.29;99906.37;1775542;80;20885;-73
2022/02/01 01:57:23;;;;;;;10.58;5.35;;;;;;;0.20;70.35;99913.20;1775638;80;21011;-72
2022/02/01 01:59:51;;;;;;;11.30;5.28;;;;;;;0.20;70.36;99910.63;1775315;80;21473;-73
2022/02/01 02:02:18;;;;;;;10.80;4.85;;;;;;;0.20;70.33;99913.20;1775585;80;20913;-73
2022/02/01 02:04:45;;;;;;;15.28;5.37;;;;;;;0.22;70.31;99917.03;1775308;80;20936;-73
2022/02/01 02:07:13;;;;;;;8.38;4.92;;;;;;;0.22;70.32;99921.73;1775364;80;21439;-72
2022/02/01 02:09:40;;;;;;;11.80;6.35;;;;;;;0.24;70.36;99921.25;1738048;82;21410;-72
2022/02/01 02:12:18;;;;;;;11.55;6.58;;;;;;;0.25;70.26;99923.41;1775539;80;20864;-72
2022/02/01 02:14:48;;;;;;;9.35;5.97;;;;;;;0.25;70.28;99929.86;1773619;80;20928;-72
2022/02/01 02:17:14;;;;;;;12.00;6.53;;;;;;;0.24;70.20;99931.56;1775333;80;20860;-75
2022/02/01 02:19:41;;;;;;;15.25;8.03;;;;;;;0.25;70.17;99924.70;1775565;80;21514;-73
2022/02/01 02:22:08;;;;;;;10.55;6.85;;;;;;;0.25;70.23;99925.53;1775303;80;21423;-73
2022/02/01 02:24:38;;;;;;;12.05;6.55;;;;;;;0.25;70.26;99933.72;1775297;80;21012;-72
2022/02/01 02:27:06;;;;;;;13.38;6.80;;;;;;;0.23;70.18;99938.91;1775448;80;20983;-74
2022/02/01 02:29:33;;;;;;;12.35;6.78;;;;;;;0.25;70.17;99941.45;1775307;80;20892;-74
2022/02/01 02:32:00;;;;;;;9.25;6.28;;;;;;;0.24;70.17;99941.04;1775539;80;21124;-74
2022/02/01 02:34:27;;;;;;;14.63;8.33;;;;;;;0.23;70.16;99944.07;1775169;80;20885;-75
2022/02/01 02:37:04;;;;;;;14.80;9.23;;;;;;;0.23;70.23;99942.78;1775528;80;20936;-73
2022/02/01 02:42:15;;;;;;;17.25;7.92;;;;;;;0.20;70.31;99946.72;1726418;82;20124;-74
2022/02/01 02:47:28;;;;;;;11.83;7.95;;;;;;;0.16;70.36;99954.16;1775453;80;20981;-75
2022/02/01 02:49:56;;;;;;;19.65;10.25;;;;;;;0.14;70.37;99952.91;1775261;80;20940;-73
2022/02/01 02:52:25;;;;;;;18.02;10.30;;;;;;;0.13;70.45;99964.09;1775145;80;20919;-74
2022/02/01 02:54:51;;;;;;;16.70;10.10;;;;;;;0.11;70.56;99963.73;1775487;80;21335;-74
2022/02/01 02:57:18;;;;;;;21.50;10.70;;;;;;;0.09;70.74;99958.64;1775287;80;21516;-72
2022/02/01 02:59:45;;;;;;;19.77;10.25;;;;;;;0.10;70.80;99967.22;1775210;80;21369;-73
2022/02/01 03:02:12;;;;;;;14.45;9.28;;;;;;;0.08;70.92;99972.41;1775536;80;20928;-74
2022/02/01 03:04:39;;;;;;;17.52;10.15;;;;;;;0.07;70.96;99978.45;1775240;80;20984;-73
2022/02/01 03:07:06;;;;;;;19.52;10.75;;;;;;;0.07;71.07;99986.19;1775397;80;21495;-73
2022/02/01 03:09:39;;;;;;;18.37;10.60;;;;;;;0.05;71.18;99980.23;1775477;80;21125;-72
2022/02/01 03:12:03;;;;;;;16.42;8.88;;;;;;;0.04;71.33;99976.40;1774903;80;20885;-73
2022/02/01 03:17:24;;;;;;;20.25;10.40;;;;;;;0.00;71.36;99980.81;1775192;80;20896;-73
2022/02/01 03:19:56;;;;;;;16.65;9.15;;;;;;;0.02;71.39;99988.03;1774398;80;20976;-72
2022/02/01 03:22:21;;;;;;;12.93;8.65;;;;;;;0.02;71.38;99994.47;1773690;80;21643;-73
2022/02/01 03:24:50;;;;;;;13.15;8.43;;;;;;;0.03;71.41;99991.48;1775785;80;20988;-74
2022/02/01 03:27:17;;;;;;;8.48;6.42;;;;;;;0.01;71.37;99990.22;1702529;84;20921;-73
2022/02/01 03:29:44;;;;;;;15.13;7.03;;;;;;;0.02;71.26;99997.05;1712113;83;20912;-75
2022/02/01 03:32:11;;;;;;;10.55;7.17;;;;;;;0.03;71.19;99996.62;1775014;80;21087;-74
2022/02/01 03:34:38;;;;;;;12.98;6.87;;;;;;;0.03;71.25;100006.94;1775385;80;21827;-74
2022/02/01 03:37:05;;;;;;;10.55;6.28;;;;;;;0.03;71.28;99997.92;1775113;80;20885;-74
2022/02/01 03:39:32;;;;;;;9.10;6.70;;;;;;;0.04;71.32;100006.04;1775230;80;20845;-73
2022/02/01 03:42:01;;;;;;;12.82;6.25;;;;;;;0.05;71.35;100002.59;1775278;80;21397;-72
2022/02/01 03:44:31;;;;;;;11.18;5.92;;;;;;;0.05;71.16;100010.33;1775363;80;20940;-73
2022/02/01 03:47:01;;;;;;;8.03;5.17;;;;;;;0.05;71.25;100011.61;1775169;80;21148;-72
2022/02/01 03:49:34;;;;;;;17.10;8.88;;;;;;;0.05;71.24;100011.16;1775356;80;20967;-72
2022/02/01 03:52:01;;;;;;;9.20;5.03;;;;;;;0.04;71.16;100008.62;1775612;80;20900;-72
2022/02/01 03:54:29;;;;;;;9.55;4.97;;;;;;;0.07;71.14;100016.25;1775196;80;20940;-74
2022/02/01 03:56:59;;;;;;;7.50;4.72;;;;;;;0.07;70.93;100018.41;1775791;80;21003;-72
2022/02/01 03:59:26;;;;;;;6.70;4.35;;;;;;;0.10;70.91;100010.59;1775136;80;21513;-73
2022/02/01 04:01:55;;;;;;;16.55;9.18;;;;;;;0.12;70.74;100013.13;1775162;80;20932;-73
2022/02/01 04:04:24;;;;;;;19.27;10.68;;;;;;;0.13;70.66;100014.81;1775477;80;20916;-72
2022/02/01 04:06:51;;;;;;;9.28;5.22;;;;;;;0.14;70.49;100013.94;1775511;80;20900;-74
2022/02/01 04:09:19;;;;;;;6.08;4.90;;;;;;;0.17;70.42;100019.00;1775235;80;22526;-74
2022/02/01 04:11:45;;;;;;;8.88;5.65;;;;;;;0.18;70.27;100022.00;1775485;80;21188;-73
2022/02/01 04:14:16;;;;;;;13.53;5.97;;;;;;;0.19;70.03;100020.64;1775450;80;20858;-74
2022/02/01 04:16:41;;;;;;;7.87;5.67;;;;;;;0.20;69.94;100022.77;1774999;80;20979;-75
2022/02/01 04:19:08;;;;;;;9.50;5.03;;;;;;;0.23;69.80;100027.03;1775501;80;20893;-74
2022/02/01 04:21:34;;;;;;;11.50;5.72;;;;;;;0.23;69.77;100030.45;1775393;80;21426;-75
2022/02/01 04:24:01;;;;;;;6.70;5.08;;;;;;;0.25;69.60;100035.12;1775237;80;21108;-75
2022/02/01 04:26:28;;;;;;;11.00;5.20;;;;;;;0.26;69.51;100037.25;1775407;80;20987;-74
2022/02/01 04:28:55;;;;;;;15.95;6.92;;;;;;;0.28;69.46;100036.77;1775466;80;21386;-72
2022/02/01 04:31:22;;;;;;;10.50;5.40;;;;;;;0.29;69.40;100046.17;1775128;80;20944;-73
2022/02/01 04:33:49;;;;;;;12.47;7.15;;;;;;;0.29;69.35;100049.63;1780749;80;20983;-72
2022/02/01 04:36:18;;;;;;;16.25;7.67;;;;;;;0.29;69.41;100057.36;1783432;80;21504;-74
2022/02/01 04:38:54;;;;;;;9.55;5.72;;;;;;;0.31;69.37;100050.44;1783374;80;21003;-73
2022/02/01 04:41:14;;;;;;;11.57;6.08;;;;;;;0.31;69.34;100059.88;1781408;80;21555;-72
2022/02/01 04:43:41;;;;;;;12.40;5.60;;;;;;;0.33;69.17;100062.81;1783482;80;20888;-74
2022/02/01 04:46:09;;;;;;;18.90;11.05;;;;;;;0.33;69.16;100059.39;1783500;80;20928;-73
2022/02/01 04:48:36;;;;;;;20.55;12.37;;;;;;;0.34;69.14;100067.10;1783573;80;21441;-71
2022/02/01 04:51:03;;;;;;;11.97;6.28;;;;;;;0.33;69.06;100062.81;1783523;80;20852;-71
2022/02/01 04:53:30;;;;;;;11.10;6.00;;;;;;;0.36;68.99;100060.63;1785268;80;20896;-70
2022/02/01 04:55:57;;;;;;;9.88;5.30;;;;;;;0.37;68.88;100068.30;1787318;80;20959;-72
2022/02/01 04:58:24;;;;;;;13.13;6.30;;;;;;;0.39;68.72;100070.39;1784812;80;20927;-71
2022/02/01 05:00:52;;;;;;;12.23;6.20;;;;;;;0.39;68.69;100076.84;1776231;80;21106;-72
2022/02/01 05:03:19;;;;;;;13.88;7.17;;;;;;;0.40;68.61;100075.97;1775938;80;21449;-72
2022/02/01 05:05:46;;;;;;;12.45;6.80;;;;;;;0.41;68.53;100076.81;1775834;80;21018;-71
2022/02/01 05:08:14;;;;;;;16.15;6.95;;;;;;;0.41;68.46;100082.81;1775798;80;20924;-72
2022/02/01 05:10:41;;;;;;;12.70;8.40;;;;;;;0.40;68.35;100077.27;1776097;80;21407;-72
2022/02/01 05:16:01;;;;;;;10.53;6.40;;;;;;;0.43;68.23;100085.80;1776342;80;20821;-74
2022/02/01 05:18:25;;;;;;;12.13;8.05;;;;;;;0.45;68.13;100100.80;1774845;80;20963;-72
2022/02/01 05:20:59;;;;;;;14.15;7.08;;;;;;;0.46;68.14;100097.31;1776213;80;20852;-73
2022/02/01 05:23:23;;;;;;;17.95;7.12;;;;;;;0.48;67.98;100099.41;1775309;80;20915;-74
2022/02/01 05:25:51;;;;;;;14.63;7.28;;;;;;;0.48;67.69;100099.41;1776259;80;21512;-73
2022/02/01 05:28:20;;;;;;;16.07;6.80;;;;;;;0.50;67.63;100100.22;1775869;80;21013;-73
2022/02/01 05:30:47;;;;;;;13.28;7.47;;;;;;;0.51;67.55;100100.19;1775711;80;20947;-74
2022/02/01 05:33:13;;;;;;;19.23;6.95;;;;;;;0.55;67.49;100107.38;1774874;79;20848;-73
2022/02/01 05:35:40;;;;;;;16.27;8.30;;;;;;;0.57;67.35;100114.64;1772903;81;20943;-73
2022/02/01 05:38:07;;;;;;;13.18;7.85;;;;;;;0.61;67.25;100122.70;1772764;80;21760;-74
2022/02/01 05:40:35;;;;;;;14.58;6.95;;;;;;;0.65;67.19;100132.06;1772748;80;20836;-74
2022/02/01 05:43:06;;;;;;;13.45;7.10;;;;;;;0.70;66.99;100137.09;1772838;81;20888;-73
2022/02/01 05:45:34;;;;;;;15.85;7.05;;;;;;;0.72;66.87;100138.73;1772443;81;20892;-74
2022/02/01 05:48:02;;;;;;;14.07;7.80;;;;;;;0.75;66.67;100142.52;1773020;80;20864;-72
2022/02/01 05:50:31;;;;;;;13.90;8.53;;;;;;;0.77;66.58;100148.48;1773113;80;20876;-74
2022/02/01 05:52:58;;;;;;;28.70;15.00;;;;;;;0.78;66.50;100152.77;1772775;80;20952;-73
2022/02/01 05:55:25;;;;;;;32.60;17.75;;;;;;;0.78;66.42;100157.09;1772866;79;20919;-73
2022/02/01 05:57:53;;;;;;;27.77;16.12;;;;;;;0.75;66.49;100163.16;1772846;81;20908;-74
2022/02/01 06:00:20;;;;;;;24.12;12.73;;;;;;;0.72;66.54;100164.55;1773102;81;21334;-73
2022/02/01 06:02:50;;;;;;;20.85;11.78;;;;;;;0.71;66.61;100171.03;1773013;80;21711;-75
2022/02/01 06:05:17;;;;;;;50.63;23.50;;;;;;;0.70;66.77;100162.45;1772864;79;21394;-73
2022/02/01 06:07:45;;;;;;;32.05;14.98;;;;;;;0.72;66.96;100167.13;1772988;80;20892;-74
2022/02/01 06:10:13;;;;;;;27.70;11.60;;;;;;;0.71;67.03;100164.58;1773027;81;21027;-75
2022/02/01 06:12:46;;;;;;;18.05;9.60;;;;;;;0.72;67.09;100165.00;1772798;80;20983;-75
2022/02/01 06:15:17;;;;;;;;;;;;;;;0.70;67.07;100174.51;1775578;81;22038;-74
2022/02/01 06:17:43;;;;;;;23.00;10.08;;;;;;;0.70;67.16;100170.64;1773104;81;20427;-74
2022/02/01 06:20:12;;;;;;;25.20;11.48;;;;;;;0.71;67.31;100174.89;1772773;81;20988;-75
2022/02/01 06:22:39;;;;;;;21.07;10.32;;;;;;;0.75;67.33;100171.35;1772958;80;20908;-74
2022/02/01 06:25:07;;;;;;;22.10;11.12;;;;;;;0.78;67.31;100179.03;1773049;79;21500;-74
2022/02/01 06:27:34;;;;;;;27.13;11.53;;;;;;;0.81;67.29;100177.20;1773009;81;21138;-74
2022/02/01 06:30:02;;;;;;;17.92;9.73;;;;;;;0.86;67.33;100183.97;1772693;80;20884;-74
2022/02/01 06:32:32;;;;;;;16.27;9.28;;;;;;;0.92;67.42;100191.56;1772760;79;20845;-73
2022/02/01 06:34:59;;;;;;;15.05;8.23;;;;;;;0.96;67.42;100194.02;1777898;80;21303;-74
2022/02/01 06:37:26;;;;;;;15.70;9.35;;;;;;;1.02;67.24;100197.72;1778808;80;20963;-73
2022/02/01 06:39:54;;;;;;;22.82;9.48;;;;;;;1.05;66.70;100186.45;1778555;80;21154;-73
2022/02/01 06:42:21;;;;;;;13.72;9.30;;;;;;;1.09;66.11;100181.62;1778865;80;20919;-73
2022/02/01 06:44:48;;;;;;;17.80;9.40;;;;;;;1.11;65.77;100186.72;1778439;80;20927;-73
2022/02/01 06:47:15;;;;;;;13.93;7.37;;;;;;;1.12;65.47;100184.55;1778765;80;20928;-73
2022/02/01 06:49:42;;;;;;;14.30;8.93;;;;;;;1.15;65.08;100194.33;1778536;80;20907;-73
2022/02/01 06:52:09;;;;;;;23.02;12.37;;;;;;;1.19;65.02;100189.94;1778870;79;21112;-73
2022/02/01 06:54:36;;;;;;;14.50;8.90;;;;;;;1.22;64.85;100182.97;1778457;80;20837;-75
2022/02/01 06:57:04;;;;;;;15.15;8.23;;;;;;;1.26;64.70;100175.95;1778952;80;20864;-73
2022/02/01 06:59:31;;;;;;;20.57;10.75;;;;;;;1.27;64.28;100182.83;1778571;80;21353;-75
2022/02/01 07:01:58;;;;;;;11.80;7.80;;;;;;;1.28;64.08;100187.09;1778734;80;20935;-73
2022/02/01 07:04:25;;;;;;;17.67;8.00;;;;;;;1.29;64.02;100183.63;1778499;79;21059;-73
2022/02/01 07:06:52;;;;;;;20.60;9.25;;;;;;;1.36;63.90;100186.89;1778401;80;20848;-74
2022/02/01 07:09:21;;;;;;;16.17;7.75;;;;;;;1.39;63.84;100188.91;1778782;80;20919;-74
2022/02/01 07:11:48;;;;;;;18.60;8.80;;;;;;;1.44;63.47;100190.91;1778689;80;20912;-73
2022/02/01 07:14:16;;;;;;;24.25;13.10;;;;;;;1.46;63.20;100190.88;1778474;80;20915;-75
2022/02/01 07:16:42;;;;;;;17.23;8.93;;;;;;;1.47;63.17;100187.84;1778521;79;21116;-74
2022/02/01 07:19:09;;;;;;;21.48;10.08;;;;;;;1.51;63.08;100194.16;1778851;80;20884;-72
2022/02/01 07:21:36;;;;;;;20.37;9.25;;;;;;;1.58;63.05;100190.95;1778402;80;21671;-73
2022/02/01 07:24:05;;;;;;;21.95;10.45;;;;;;;1.68;62.94;100197.55;1778707;80;20979;-73
2022/02/01 07:26:32;;;;;;;16.75;8.35;;;;;;;1.77;62.49;100206.30;1778614;80;20912;-75
2022/02/01 07:28:59;;;;;;;15.03;6.28;;;;;;;1.83;62.13;100206.13;1778707;79;21113;-74
2022/02/01 07:31:26;;;;;;;18.57;8.05;;;;;;;1.86;61.33;100196.97;1778527;80;20907;-73
2022/02/01 07:33:52;;;;;;;17.48;7.10;;;;;;;1.90;61.18;100209.38;1775414;80;20888;-74
2022/02/01 07:36:19;;;;;;;17.00;7.83;;;;;;;1.97;60.87;100219.08;1768549;81;20900;-74
2022/02/01 07:38:46;;;;;;;15.88;8.75;;;;;;;2.06;60.84;100215.74;1768403;81;21377;-75
2022/02/01 07:41:13;;;;;;;18.23;8.98;;;;;;;2.16;60.88;100218.06;1768371;80;21152;-76
2022/02/01 07:43:40;;;;;;;15.28;9.15;;;;;;;2.26;60.93;100218.98;1768178;81;21474;-76
2022/02/01 07:46:11;;;;;;;15.40;8.15;;;;;;;2.36;60.62;100222.14;1768232;81;20916;-76
2022/02/01 07:48:36;;;;;;;15.98;7.80;;;;;;;2.46;60.16;100233.03;1768084;81;20935;-76
2022/02/01 07:51:03;;;;;;;14.43;8.05;;;;;;;2.52;59.61;100239.30;1768632;81;20900;-76
2022/02/01 07:53:30;;;;;;;14.25;6.47;;;;;;;2.59;59.28;100239.48;1768424;81;21112;-75
2022/02/01 07:55:56;;;;;;;19.07;8.43;;;;;;;2.67;59.27;100242.68;1768501;80;20924;-74
2022/02/01 07:58:26;;;;;;;15.78;8.98;;;;;;;2.78;58.60;100244.91;1768586;81;20912;-71
2022/02/01 08:00:53;;;;;;;10.20;6.55;;;;;;;2.88;58.33;100250.61;1768841;81;21326;-73
2022/02/01 08:03:20;;;;;;;12.35;9.40;;;;;;;2.95;58.06;100245.61;1768453;81;20972;-73
2022/02/01 08:05:48;;;;;;;14.00;7.03;;;;;;;3.05;58.03;100250.04;1768366;81;21522;-75
2022/02/01 08:08:15;;;;;;;13.45;6.37;;;;;;;3.11;57.28;100253.27;1768387;81;20872;-74
2022/02/01 08:10:47;;;;;;;9.35;5.78;;;;;;;3.16;57.16;100258.28;1768700;81;20861;-74
2022/02/01 08:18:33;;;;;;;15.83;7.58;;;;;;;3.37;56.29;100260.55;1770090;80;21907;-70
2022/02/01 08:20:56;;;;;;;13.93;8.33;;;;;;;3.44;56.01;100266.35;1769469;81;20869;-74
2022/02/01 08:23:20;;;;;;;18.25;6.80;;;;;;;3.49;55.93;100267.02;1768920;81;20869;-73
2022/02/01 08:25:50;;;;;;;16.67;8.00;;;;;;;3.58;55.87;100268.44;1768508;81;20995;-74
2022/02/01 08:28:18;;;;;;;16.82;7.10;;;;;;;3.68;55.68;100274.98;1768460;81;20880;-75
2022/02/01 08:30:45;;;;;;;18.50;7.15;;;;;;;3.76;55.12;100261.72;1768589;81;21248;-74
2022/02/01 08:33:12;;;;;;;13.83;6.62;;;;;;;3.77;55.19;100270.74;1768217;81;20876;-76
2022/02/01 08:35:39;;;;;;;15.23;7.42;;;;;;;3.77;55.18;100267.31;1772527;80;20932;-75
2022/02/01 08:38:08;;;;;;;17.60;8.80;;;;;;;3.75;55.10;100267.36;1772640;80;20924;-76
2022/02/01 08:40:35;;;;;;;15.08;7.15;;;;;;;3.72;55.02;100272.67;1772689;79;20884;-76
2022/02/01 08:43:02;;;;;;;13.60;7.30;;;;;;;3.66;55.04;100267.25;1772663;79;21532;-74
2022/02/01 08:45:30;;;;;;;12.58;7.92;;;;;;;3.62;54.93;100277.33;1772711;81;20968;-74
2022/02/01 08:48:44;;;;;;;14.23;8.80;;;;;;;3.64;54.99;100272.94;1883884;75;22353;-75
2022/02/01 08:51:12;;;;;;;16.52;6.95;;;;;;;3.60;54.84;100269.22;1860823;76;20867;-74
2022/02/01 08:53:47;;;;;;;14.15;7.17;;;;;;;3.62;54.69;100263.08;1860686;77;21111;-73
2022/02/01 08:57:20;;;;;;;14.23;6.55;;;;;;;3.66;54.82;100263.36;1860217;77;21056;-75
2022/02/01 08:58:40;;;;;;;11.93;6.03;;;;;;;3.78;54.37;100276.77;1856315;76;21040;-74
2022/02/01 09:01:10;;;;;;;14.05;5.78;;;;;;;3.88;53.59;100269.88;1861371;77;20947;-73
2022/02/01 09:03:37;;;;;;;11.73;5.35;;;;;;;4.00;53.27;100264.67;1804692;77;20880;-73
2022/02/01 09:06:04;;;;;;;9.65;5.12;;;;;;;4.12;52.89;100265.50;1860642;76;22074;-72
2022/02/01 09:08:33;;;;;;;10.28;5.05;;;;;;;4.22;52.56;100254.30;1860546;77;21379;-73
2022/02/01 09:11:00;;;;;;;9.45;5.42;;;;;;;4.36;52.27;100269.34;1861072;77;20871;-74
2022/02/01 09:13:26;;;;;;;14.80;4.95;;;;;;;4.46;51.85;100255.53;1860771;76;20990;-74
2022/02/01 09:15:53;;;;;;;10.68;5.50;;;;;;;4.56;51.30;100261.59;1860941;77;20812;-77
2022/02/01 09:18:23;;;;;;;15.23;7.65;;;;;;;4.67;50.69;100260.29;1830217;77;21070;-74
2022/02/01 09:20:51;;;;;;;12.05;5.65;;;;;;;4.75;50.01;100262.12;1861003;77;20938;-75
2022/02/01 09:23:19;;;;;;;12.68;6.55;;;;;;;4.75;49.71;100270.75;1860663;76;20994;-78
2022/02/01 09:25:47;;;;;;;9.30;5.80;;;;;;;4.76;50.70;100270.33;1861035;76;20904;-77
2022/02/01 09:28:14;;;;;;;14.45;6.17;;;;;;;4.72;51.74;100269.59;1860559;76;21536;-73
2022/02/01 09:30:42;;;;;;;10.25;6.00;;;;;;;4.70;52.18;100269.27;1860587;76;21139;-72
2022/02/01 09:33:09;;;;;;;10.23;5.12;;;;;;;4.69;52.52;100270.16;1860751;76;20978;-73
2022/02/01 09:35:36;;;;;;;11.80;7.03;;;;;;;4.63;52.64;100264.78;1860898;77;20860;-73
2022/02/01 09:38:03;;;;;;;14.87;5.95;;;;;;;4.55;52.84;100262.95;1860749;77;21044;-72
2022/02/01 09:40:30;;;;;;;12.98;5.70;;;;;;;4.46;52.97;100261.56;1861132;77;20871;-79
2022/02/01 09:42:57;;;;;;;14.47;6.50;;;;;;;4.39;53.02;100252.80;1860596;77;21118;-73
2022/02/01 09:45:23;;;;;;;13.78;6.35;;;;;;;4.29;53.26;100255.77;1860986;77;21013;-79
2022/02/01 09:47:51;;;;;;;14.28;5.95;;;;;;;4.25;53.73;100256.80;1854831;77;20909;-81
2022/02/01 09:50:18;;;;;;;16.90;8.63;;;;;;;4.27;53.25;100258.01;1849850;77;21446;-84
2022/02/01 09:52:45;;;;;;;12.85;6.75;;;;;;;4.35;53.02;100254.20;1823863;77;20948;-75
2022/02/01 09:55:14;;;;;;;11.95;5.65;;;;;;;4.44;53.27;100246.96;1851577;77;21123;-74
2022/02/01 09:57:44;;;;;;;10.43;4.37;;;;;;;4.46;52.80;100251.64;1849751;77;20893;-74
2022/02/01 10:00:15;;;;;;;10.15;5.72;;;;;;;4.53;52.50;100247.41;1848823;77;20869;-75
2022/02/01 10:02:42;;;;;;;10.28;4.72;;;;;;;4.77;52.00;100252.05;1848802;77;20956;-78
2022/02/01 10:05:11;;;;;;;11.95;5.75;;;;;;;5.19;51.14;100257.63;1849366;76;20890;-76
2022/02/01 10:07:56;;;;;;;9.85;4.95;;;;;;;5.62;50.25;100247.07;1849376;76;21148;-74
2022/02/01 10:10:27;;;;;;;10.93;5.15;;;;;;;6.09;49.45;100244.08;1849161;77;20901;-74
2022/02/01 10:13:37;;;;;;;10.82;5.33;;;;;;;6.71;48.36;100247.58;1849143;77;20916;-73
2022/02/01 10:16:11;;;;;;;14.95;4.97;;;;;;;7.27;47.64;100236.03;1839116;76;20968;-74
2022/02/01 10:18:33;;;;;;;6.25;3.95;;;;;;;7.89;46.42;100234.85;1784096;79;20907;-75
2022/02/01 10:21:10;;;;;;;8.40;4.80;;;;;;;8.35;45.17;100237.98;1783980;79;21537;-75
2022/02/01 10:23:39;;;;;;;9.55;3.72;;;;;;;8.64;43.80;100233.25;1782189;80;21010;-79
2022/02/01 10:26:21;;;;;;;12.68;5.08;;;;;;;8.76;41.31;100229.54;1783804;79;20867;-70
2022/02/01 10:31:52;;;;;;;7.12;4.00;;;;;;;8.31;42.65;100217.71;1783950;79;20990;-73
2022/02/01 10:37:19;;;;;;;7.70;4.40;;;;;;;8.45;43.02;100219.59;1783709;79;20848;-73
2022/02/01 10:39:49;;;;;;;5.62;3.58;;;;;;;8.51;42.34;100213.98;1784147;79;21583;-73
2022/02/01 10:42:17;;;;;;;12.33;4.50;;;;;;;8.56;42.11;100212.41;1783355;79;21507;-75
2022/02/01 10:44:54;;;;;;;6.85;3.58;;;;;;;8.51;41.80;100210.06;1784229;79;20915;-75
2022/02/01 10:47:36;;;;;;;9.18;3.98;;;;;;;8.52;42.34;100205.70;1785111;80;21219;-75
2022/02/01 10:50:23;;;;;;;6.60;3.83;;;;;;;8.53;41.84;100201.67;1789203;80;20978;-74
2022/02/01 10:52:50;;;;;;;9.35;4.60;;;;;;;8.41;41.76;100200.63;1788856;80;20906;-75
2022/02/01 10:55:19;;;;;;;9.08;3.77;;;;;;;8.32;41.76;100215.49;1789314;80;20981;-79
2022/02/01 10:57:46;;;;;;;10.13;3.58;;;;;;;8.24;42.03;100204.62;1789221;80;21424;-77
2022/02/01 11:00:16;;;;;;;10.28;4.70;;;;;;;8.17;42.01;100209.83;1789098;80;21128;-77
2022/02/01 11:02:45;;;;;;;9.18;3.95;;;;;;;8.14;42.22;100208.67;1789282;80;21383;-79
2022/02/01 11:05:15;;;;;;;7.53;3.62;;;;;;;8.13;41.51;100209.15;1789372;78;20918;-74
2022/02/01 11:07:43;;;;;;;13.95;4.50;;;;;;;8.09;41.07;100207.63;1789029;80;20883;-77
2022/02/01 11:10:11;;;;;;;9.58;3.85;;;;;;;8.02;41.21;100214.97;1789305;79;21000;-77
2022/02/01 11:12:40;;;;;;;8.35;3.45;;;;;;;7.85;41.54;100215.92;1807302;77;20922;-77
2022/02/01 11:15:24;;;;;;;8.08;4.10;;;;;;;7.62;42.38;100200.67;1806188;78;21412;-78
2022/02/01 11:17:52;;;;;;;10.38;4.70;;;;;;;7.35;43.24;100201.23;1834801;76;20930;-79
2022/02/01 11:20:30;;;;;;;11.03;4.97;;;;;;;7.01;43.91;100197.80;1834675;77;20915;-77
2022/02/01 11:23:11;;;;;;;6.95;4.00;;;;;;;6.76;44.81;100199.97;1835229;77;21484;-79
2022/02/01 11:25:47;;;;;;;10.08;4.47;;;;;;;6.51;45.62;100204.28;1834996;76;21867;-77
2022/02/01 11:31:01;;;;;;;12.15;4.72;;;;;;;6.11;47.28;100208.83;1835032;76;20887;-78
2022/02/01 11:33:42;;;;;;;11.53;4.55;;;;;;;5.94;48.14;100209.63;1836563;77;21447;-76
2022/02/01 11:36:11;;;;;;;7.95;4.55;;;;;;;5.83;48.43;100198.88;1836100;76;20919;-77
2022/02/01 11:38:52;;;;;;;5.92;4.95;;;;;;;5.74;48.93;100198.86;1835504;77;22033;-74
2022/02/01 11:41:35;;;;;;;13.60;5.53;;;;;;;5.61;49.31;100203.78;1831349;76;21467;-77
2022/02/01 11:44:14;;;;;;;9.30;4.92;;;;;;;5.50;49.49;100200.36;1835314;77;20882;-76
2022/02/01 11:47:20;;;;;;;9.90;4.60;;;;;;;5.37;49.47;100192.27;1831630;77;21368;-75
2022/02/01 11:49:58;;;;;;;9.28;5.42;;;;;;;5.25;49.81;100195.44;1787911;79;20966;-75
2022/02/01 11:52:26;;;;;;;9.33;4.80;;;;;;;5.21;50.26;100201.68;1785253;80;21454;-75
2022/02/01 11:55:06;;;;;;;11.08;4.60;;;;;;;5.19;50.22;100192.64;1784547;80;20847;-75
2022/02/01 11:57:34;;;;;;;9.58;5.95;;;;;;;5.18;50.29;100196.17;1784750;80;20875;-76
2022/02/01 12:00:14;;;;;;;10.93;5.40;;;;;;;5.18;50.01;100190.97;1784440;80;20918;-72
2022/02/01 12:02:52;;;;;;;7.67;5.87;;;;;;;5.16;50.42;100191.95;1784783;80;20906;-74
2022/02/01 12:05:34;;;;;;;11.90;6.33;;;;;;;5.10;50.95;100196.12;1784137;79;21330;-74
2022/02/01 12:08:13;;;;;;;12.47;5.87;;;;;;;5.02;51.42;100196.44;1784591;80;20836;-76
2022/02/01 12:10:49;;;;;;;8.95;6.15;;;;;;;4.93;51.92;100192.48;1784758;80;20989;-73
2022/02/01 12:13:24;;;;;;;12.70;6.80;;;;;;;4.88;52.41;100200.95;1784824;80;20875;-73
2022/02/01 12:15:52;;;;;;;;;;;;;;;4.86;52.62;100200.63;1787665;79;21037;-75
2022/02/01 12:18:55;;;;;;;15.98;5.50;;;;;;;4.87;52.71;100209.66;1784898;79;21596;-72
2022/02/01 12:21:46;;;;;;;12.90;5.30;;;;;;;4.86;52.93;100218.34;1784095;80;20868;-74
2022/02/01 12:24:12;;;;;;;12.93;5.37;;;;;;;4.90;52.86;100214.72;1786860;78;20911;-74
2022/02/01 12:26:42;;;;;;;9.53;5.33;;;;;;;4.98;52.85;100216.54;1834389;77;21348;-77
2022/02/01 12:29:12;;;;;;;12.68;5.03;;;;;;;5.03;52.79;100215.03;1834742;77;20950;-74
2022/02/01 12:31:40;;;;;;;8.63;5.00;;;;;;;5.07;53.01;100230.02;1834662;76;21127;-76
2022/02/01 12:34:12;;;;;;;10.20;5.67;;;;;;;5.13;53.23;100221.96;1834954;77;20898;-75
2022/02/01 12:36:48;;;;;;;13.03;5.67;;;;;;;5.25;53.37;100218.00;1834729;77;20891;-77
2022/02/01 12:39:26;;;;;;;8.25;5.17;;;;;;;5.30;53.27;100216.86;1835104;77;21408;-77
2022/02/01 12:42:15;;;;;;;11.63;6.28;;;;;;;5.30;53.31;100212.97;1834308;76;20961;-76
2022/02/01 12:47:20;;;;;;;9.35;6.40;;;;;;;5.13;53.27;100216.30;1834592;77;21004;-75
2022/02/01 12:49:52;;;;;;;12.88;7.25;;;;;;;5.03;53.35;100224.13;1834910;77;20965;-75
2022/02/01 12:52:23;;;;;;;14.90;8.65;;;;;;;4.85;53.72;100206.75;1834689;77;20922;-75
2022/02/01 12:55:03;;;;;;;23.70;12.10;;;;;;;4.66;54.29;100207.51;1834650;77;20966;-74
2022/02/01 12:57:31;;;;;;;28.85;12.95;;;;;;;4.52;54.84;100213.75;1835107;77;21427;-74
2022/02/01 13:00:00;;;;;;;19.77;11.25;;;;;;;4.37;55.40;100221.70;1834542;77;20910;-75
2022/02/01 13:02:29;;;;;;;17.52;8.45;;;;;;;4.24;56.08;100220.05;1835181;77;20890;-76
2022/02/01 13:05:03;;;;;;;21.00;9.00;;;;;;;4.17;56.50;100217.77;1834763;77;21388;-75
2022/02/01 13:16:41;;;;;;;18.10;9.28;;;;;;;4.01;57.97;100215.79;1835272;77;21465;-76
2022/02/01 13:21:39;;;;;;;18.87;9.98;;;;;;;3.94;58.30;100219.53;1835921;77;20879;-74